Time;durP1;ratioP1;P1;durP2;ratioP2;P2;SDS_P1;SDS_P2;PMS_P1;PMS_P2;Temp;Humidity;BMP_temperature;BMP_pressure;BME280_temperature;BME280_humidity;BME280_pressure;Samples;Min_cycle;Max_cycle;Signal;HPM_P1;HPM_P2
2022/08/14 00:02:23;;;;;;;8.38;2.60;;;18.00;99.90;;;;;;4927304;29;20398;-81
2022/08/14 00:04:54;;;;;;;6.50;2.22;;;18.00;99.90;;;;;;4928250;28;20409;-80
2022/08/14 00:07:21;;;;;;;7.05;2.22;;;17.90;99.90;;;;;;4917500;29;20435;-81
2022/08/14 00:09:49;;;;;;;8.00;2.65;;;17.90;99.90;;;;;;4941810;29;20428;-80
2022/08/14 00:12:41;;;;;;;5.53;2.25;;;17.90;99.90;;;;;;4919956;29;20410;-80
2022/08/14 00:15:33;;;;;;;7.40;2.40;;;17.80;99.90;;;;;;4925914;29;20699;-81
2022/08/14 00:18:11;;;;;;;8.43;2.47;;;17.70;99.90;;;;;;4925822;29;20933;-81
2022/08/14 00:20:58;;;;;;;6.72;2.30;;;17.80;99.90;;;;;;4930804;29;20466;-80
2022/08/14 00:23:25;;;;;;;8.23;2.78;;;17.80;99.90;;;;;;4927598;29;20413;-80
2022/08/14 00:25:54;;;;;;;6.10;2.40;;;17.80;99.90;;;;;;4924924;29;20426;-80
2022/08/14 00:28:34;;;;;;;8.27;2.27;;;17.80;99.90;;;;;;4925856;29;20441;-80
2022/08/14 00:31:04;;;;;;;8.25;2.35;;;17.70;99.90;;;;;;4921350;29;20491;-80
2022/08/14 00:33:34;;;;;;;6.93;2.72;;;17.70;99.90;;;;;;4919084;29;20411;-81
2022/08/14 00:36:21;;;;;;;6.95;2.38;;;17.80;99.90;;;;;;4906560;29;20420;-80
2022/08/14 00:39:14;;;;;;;7.95;2.47;;;17.70;99.90;;;;;;4928902;29;20882;-81
2022/08/14 00:41:46;;;;;;;8.02;2.50;;;17.70;99.90;;;;;;4938910;29;20960;-81
2022/08/14 00:44:14;;;;;;;5.22;2.25;;;17.70;99.90;;;;;;4941585;29;20399;-80
2022/08/14 00:47:07;;;;;;;5.78;2.13;;;17.70;99.90;;;;;;4933039;29;20785;-80
2022/08/14 00:49:37;;;;;;;4.80;2.60;;;17.60;99.90;;;;;;4929806;29;20503;-80
2022/08/14 00:52:15;;;;;;;6.40;2.45;;;17.60;99.90;;;;;;4937270;28;20770;-80
2022/08/14 00:54:53;;;;;;;6.63;2.20;;;17.60;99.90;;;;;;4922627;29;20843;-80
2022/08/14 00:57:27;;;;;;;6.28;2.30;;;17.60;99.90;;;;;;4921585;29;20406;-80
2022/08/14 00:59:56;;;;;;;8.80;2.60;;;17.50;99.90;;;;;;4920306;29;20411;-80
2022/08/14 01:02:24;;;;;;;5.17;2.93;;;17.50;99.90;;;;;;4921679;29;20809;-81
2022/08/14 01:04:59;;;;;;;7.15;2.30;;;17.50;99.90;;;;;;4924631;29;20422;-80
2022/08/14 01:07:28;;;;;;;7.13;2.30;;;17.50;99.90;;;;;;4938117;28;20424;-80
2022/08/14 01:10:14;;;;;;;5.10;2.10;;;17.50;99.90;;;;;;4922903;29;20451;-81
2022/08/14 01:12:42;;;;;;;7.88;2.47;;;17.50;99.90;;;;;;4922547;29;20405;-80
2022/08/14 01:15:15;;;;;;;5.65;2.25;;;17.50;99.90;;;;;;4926552;29;20402;-80
2022/08/14 01:23:18;;;;;;;8.77;2.35;;;17.40;99.90;;;;;;4940263;28;20415;-80
2022/08/14 01:25:49;;;;;;;6.32;2.53;;;17.40;99.90;;;;;;4925061;29;20888;-81
2022/08/14 01:28:21;;;;;;;9.93;2.60;;;17.40;99.90;;;;;;4926358;29;20418;-80
2022/08/14 01:31:15;;;;;;;9.20;2.45;;;17.40;99.90;;;;;;4923129;29;20856;-80
2022/08/14 01:33:46;;;;;;;6.60;2.40;;;17.30;99.90;;;;;;4924132;29;20410;-81
2022/08/14 01:36:38;;;;;;;8.63;2.70;;;17.30;99.90;;;;;;4922194;29;20409;-81
2022/08/14 01:39:16;;;;;;;7.30;2.60;;;17.20;99.90;;;;;;4937509;28;20418;-80
2022/08/14 01:41:57;;;;;;;4.72;2.58;;;17.20;99.90;;;;;;4919582;29;20893;-81
2022/08/14 01:44:27;;;;;;;8.02;2.58;;;17.20;99.90;;;;;;4919958;29;20426;-79
2022/08/14 01:47:11;;;;;;;6.22;2.63;;;17.20;99.90;;;;;;4926785;29;20421;-81
2022/08/14 01:49:53;;;;;;;5.07;2.55;;;17.20;99.90;;;;;;4923740;29;20478;-81
2022/08/14 01:52:33;;;;;;;9.52;2.42;;;17.20;99.90;;;;;;4937022;29;20872;-81
2022/08/14 01:55:22;;;;;;;5.65;2.70;;;17.20;99.90;;;;;;4928327;29;20390;-80
2022/08/14 01:57:49;;;;;;;6.90;2.55;;;17.10;99.90;;;;;;4922453;29;20390;-81
2022/08/14 02:00:38;;;;;;;7.63;2.50;;;17.10;99.90;;;;;;4932936;29;20484;-81
2022/08/14 02:03:06;;;;;;;8.88;2.90;;;17.10;99.90;;;;;;4929936;29;20405;-80
2022/08/14 02:05:34;;;;;;;6.43;2.85;;;17.10;99.90;;;;;;4949044;28;20463;-80
2022/08/14 02:08:07;;;;;;;6.35;2.40;;;17.00;99.90;;;;;;4928784;28;20431;-81
2022/08/14 02:10:40;;;;;;;7.80;2.67;;;17.00;99.90;;;;;;4921885;29;20892;-81
2022/08/14 02:13:15;;;;;;;6.25;2.60;;;17.00;99.90;;;;;;4924314;29;20501;-81
2022/08/14 02:15:44;;;;;;;5.30;2.60;;;17.00;99.90;;;;;;4922670;29;20831;-81
2022/08/14 02:18:15;;;;;;;7.43;2.60;;;16.90;99.90;;;;;;4924321;29;20411;-80
2022/08/14 02:20:46;;;;;;;6.90;2.63;;;16.90;99.90;;;;;;4921642;29;20911;-80
2022/08/14 02:23:15;;;;;;;7.05;3.00;;;17.00;99.90;;;;;;4940358;28;20514;-81
2022/08/14 02:26:17;;;;;;;8.55;2.60;;;17.00;99.90;;;;;;4925651;29;20508;-81
2022/08/14 02:28:59;;;;;;;11.60;2.80;;;17.00;99.90;;;;;;4921415;29;20468;-81
2022/08/14 02:31:32;;;;;;;9.27;2.83;;;16.90;99.90;;;;;;4921630;29;20410;-81
2022/08/14 02:34:17;;;;;;;5.43;2.55;;;16.90;99.90;;;;;;4921637;29;20405;-80
2022/08/14 02:36:58;;;;;;;7.25;2.80;;;16.90;99.90;;;;;;4935133;28;20415;-81
2022/08/14 02:39:36;;;;;;;6.45;2.72;;;16.90;99.90;;;;;;4925318;29;20480;-80
2022/08/14 02:42:11;;;;;;;6.80;2.75;;;16.90;99.90;;;;;;4922436;29;20407;-81
2022/08/14 02:44:42;;;;;;;7.22;2.60;;;16.90;99.90;;;;;;4940172;28;20438;-80
2022/08/14 02:47:16;;;;;;;8.07;2.70;;;16.80;99.90;;;;;;4924489;29;20500;-80
2022/08/14 02:49:46;;;;;;;7.27;2.97;;;16.80;99.90;;;;;;4916709;29;20489;-81
2022/08/14 02:52:21;;;;;;;4.30;2.60;;;16.90;99.90;;;;;;4937717;29;20924;-80
2022/08/14 02:55:09;;;;;;;6.32;2.40;;;16.80;99.90;;;;;;4932694;28;20909;-80
2022/08/14 02:57:37;;;;;;;8.68;2.90;;;16.80;99.90;;;;;;4939573;28;20927;-81
2022/08/14 03:00:12;;;;;;;6.93;2.50;;;16.80;99.90;;;;;;4916654;29;20419;-80
2022/08/14 03:02:45;;;;;;;6.20;2.47;;;16.80;99.90;;;;;;4925279;29;20530;-80
2022/08/14 03:05:29;;;;;;;7.67;2.70;;;16.80;99.90;;;;;;4924564;29;20506;-81
2022/08/14 03:08:13;;;;;;;6.55;2.58;;;16.70;99.90;;;;;;4926439;29;20907;-80
2022/08/14 03:10:45;;;;;;;10.25;2.95;;;16.80;99.90;;;;;;4921537;29;20431;-80
2022/08/14 03:13:18;;;;;;;8.43;2.67;;;16.80;99.90;;;;;;4926567;29;20400;-81
2022/08/14 03:15:52;;;;;;;8.00;2.85;;;16.80;99.90;;;;;;4932356;29;20407;-80
2022/08/14 03:18:24;;;;;;;6.15;2.70;;;16.70;99.90;;;;;;4942360;28;20414;-80
2022/08/14 03:21:04;;;;;;;7.75;2.63;;;16.80;99.90;;;;;;4937669;29;20905;-81
2022/08/14 03:23:35;;;;;;;7.15;2.50;;;16.70;99.90;;;;;;4924655;29;20425;-80
2022/08/14 03:26:14;;;;;;;6.45;2.65;;;16.70;99.90;;;;;;4928743;29;20431;-81
2022/08/14 03:28:57;;;;;;;7.15;2.60;;;16.70;99.90;;;;;;4924491;29;20407;-80
2022/08/14 03:31:28;;;;;;;6.03;2.50;;;16.80;99.90;;;;;;4926298;29;20762;-81
2022/08/14 03:33:57;;;;;;;6.22;2.45;;;16.70;99.90;;;;;;4922219;29;20499;-82
2022/08/14 03:36:29;;;;;;;5.47;2.35;;;16.60;99.90;;;;;;4929753;29;20808;-81
2022/08/14 03:39:19;;;;;;;8.63;2.55;;;16.60;99.90;;;;;;4919208;29;20418;-81
2022/08/14 03:41:55;;;;;;;7.60;2.40;;;16.60;99.90;;;;;;4924774;29;20393;-80
2022/08/14 03:44:28;;;;;;;6.90;2.72;;;16.60;99.90;;;;;;4930725;29;20891;-81
2022/08/14 03:47:15;;;;;;;8.10;2.60;;;16.60;99.90;;;;;;4929191;29;20414;-80
2022/08/14 03:49:45;;;;;;;7.68;2.75;;;16.60;99.90;;;;;;4941325;28;20405;-81
2022/08/14 03:52:17;;;;;;;6.65;2.80;;;16.60;99.90;;;;;;4927267;29;20763;-81
2022/08/14 03:55:11;;;;;;;5.30;2.70;;;16.60;99.90;;;;;;4933058;29;20424;-81
2022/08/14 03:57:40;;;;;;;7.57;2.40;;;16.60;99.90;;;;;;4939941;28;20413;-80
2022/08/14 04:00:12;;;;;;;6.67;2.60;;;16.60;99.90;;;;;;4933176;29;20468;-81
2022/08/14 04:03:01;;;;;;;7.05;2.60;;;16.50;99.90;;;;;;4927343;29;20769;-80
2022/08/14 04:05:28;;;;;;;5.15;2.55;;;16.60;99.90;;;;;;4922597;29;20443;-80
2022/08/14 04:08:09;;;;;;;6.70;2.85;;;16.50;99.90;;;;;;4925796;29;20418;-81
2022/08/14 04:10:58;;;;;;;5.00;2.60;;;16.60;99.90;;;;;;4917279;29;20460;-79
2022/08/14 04:13:30;;;;;;;6.72;3.00;;;16.60;99.90;;;;;;4927405;29;20400;-80
2022/08/14 04:16:06;;;;;;;7.57;3.10;;;16.60;99.90;;;;;;4916830;29;20834;-80
2022/08/14 04:18:41;;;;;;;6.82;2.58;;;16.60;99.90;;;;;;4924746;29;20485;-80
2022/08/14 04:21:11;;;;;;;6.00;2.80;;;16.60;99.90;;;;;;4932153;29;20468;-81
2022/08/14 04:23:39;;;;;;;8.27;2.75;;;16.60;99.90;;;;;;4929667;29;20482;-81
2022/08/14 04:26:12;;;;;;;6.00;2.77;;;16.60;99.90;;;;;;4929900;29;20759;-80
2022/08/14 04:28:54;;;;;;;8.23;2.60;;;16.70;99.90;;;;;;4925423;29;20912;-80
2022/08/14 04:31:41;;;;;;;5.72;2.78;;;16.60;99.90;;;;;;4940196;28;20463;-81
2022/08/14 04:34:29;;;;;;;7.40;3.10;;;16.60;99.90;;;;;;4921893;29;20411;-81
2022/08/14 04:45:39;;;;;;;7.05;3.08;;;16.80;99.90;;;;;;4939301;28;20538;-81
2022/08/14 04:48:12;;;;;;;6.88;3.00;;;16.80;99.90;;;;;;4916262;29;20415;-81
2022/08/14 04:51:01;;;;;;;6.03;3.10;;;16.80;99.90;;;;;;4933901;29;20877;-82
2022/08/14 04:53:30;;;;;;;8.00;3.10;;;16.90;99.90;;;;;;4938807;28;20402;-81
2022/08/14 04:56:03;;;;;;;7.53;3.05;;;16.90;99.90;;;;;;4925300;29;20764;-81
2022/08/14 04:58:33;;;;;;;5.47;2.97;;;16.90;99.90;;;;;;4919022;29;20411;-81
2022/08/14 05:01:06;;;;;;;6.28;3.10;;;17.00;99.90;;;;;;4923831;29;20410;-81
2022/08/14 05:03:45;;;;;;;6.43;3.55;;;17.00;99.90;;;;;;4924610;29;20406;-80
2022/08/14 05:06:13;;;;;;;6.05;3.33;;;17.10;99.90;;;;;;4915867;29;20392;-80
2022/08/14 05:09:01;;;;;;;6.20;3.60;;;17.10;99.90;;;;;;4930299;29;20440;-81
2022/08/14 05:11:32;;;;;;;7.05;3.22;;;17.10;99.90;;;;;;4932031;29;20421;-81
2022/08/14 05:14:04;;;;;;;8.25;4.72;;;17.20;99.90;;;;;;4926642;29;20414;-80
2022/08/14 05:16:56;;;;;;;6.15;3.45;;;17.20;99.90;;;;;;4926329;29;20477;-81
2022/08/14 05:19:29;;;;;;;4.32;3.13;;;17.30;99.90;;;;;;4926597;29;20432;-81
2022/08/14 05:22:00;;;;;;;7.38;3.28;;;17.30;99.90;;;;;;4924211;29;20435;-82
2022/08/14 05:24:46;;;;;;;6.57;3.00;;;17.40;99.90;;;;;;4941131;28;20453;-81
2022/08/14 05:27:19;;;;;;;4.75;2.97;;;17.40;99.90;;;;;;4921216;29;20420;-80
2022/08/14 05:29:52;;;;;;;4.47;2.67;;;17.40;99.90;;;;;;4924269;29;20409;-81
2022/08/14 05:32:22;;;;;;;7.40;3.10;;;17.50;99.90;;;;;;4936781;28;20408;-81
2022/08/14 05:35:22;;;;;;;5.00;3.17;;;17.50;99.90;;;;;;4931132;29;20395;-81
2022/08/14 05:38:08;;;;;;;9.15;3.67;;;17.60;99.90;;;;;;4917657;29;20785;-82
2022/08/14 05:40:48;;;;;;;5.95;3.58;;;17.60;99.90;;;;;;4939329;28;20418;-81
2022/08/14 05:43:17;;;;;;;24.70;14.15;;;17.60;99.90;;;;;;4918345;29;20415;-81
2022/08/14 05:45:47;;;;;;;9.67;4.80;;;17.70;99.90;;;;;;4930631;28;20453;-79
2022/08/14 05:48:16;;;;;;;15.45;11.90;;;17.80;99.90;;;;;;4924396;29;20818;-80
2022/08/14 05:51:00;;;;;;;6.72;3.85;;;17.90;99.90;;;;;;4925650;29;20446;-80
2022/08/14 05:53:28;;;;;;;8.95;3.47;;;18.00;99.90;;;;;;4926069;29;20402;-80
2022/08/14 05:56:00;;;;;;;6.85;4.20;;;18.00;99.90;;;;;;4930173;29;20501;-80
2022/08/14 05:58:28;;;;;;;8.90;3.80;;;18.00;99.90;;;;;;4944344;28;20522;-81
2022/08/14 06:01:08;;;;;;;6.55;3.47;;;18.00;99.90;;;;;;4938642;29;20412;-81
2022/08/14 06:03:36;;;;;;;7.80;3.70;;;18.10;99.90;;;;;;4929542;29;20444;-81
2022/08/14 06:06:06;;;;;;;7.97;3.25;;;18.10;99.90;;;;;;4925861;28;20509;-80
2022/08/14 06:08:36;;;;;;;6.28;3.22;;;18.10;99.90;;;;;;4925772;29;20414;-80
2022/08/14 06:11:09;;;;;;;6.95;3.20;;;18.20;99.90;;;;;;4930278;29;20507;-80
2022/08/14 06:13:46;;;;;;;6.05;3.22;;;18.20;99.90;;;;;;4923645;29;20480;-81
2022/08/14 06:16:16;;;;;;;6.88;3.35;;;18.30;99.90;;;;;;4923823;29;20399;-80
2022/08/14 06:18:47;;;;;;;7.27;3.40;;;18.30;99.90;;;;;;4939813;29;20478;-79
2022/08/14 06:21:21;;;;;;;5.85;3.00;;;18.40;99.90;;;;;;4923168;29;20910;-80
2022/08/14 06:23:50;;;;;;;6.90;3.30;;;18.40;99.90;;;;;;4922536;29;20424;-80
2022/08/14 06:26:18;;;;;;;6.88;3.50;;;18.60;99.90;;;;;;4924587;29;20411;-81
2022/08/14 06:28:49;;;;;;;9.00;3.65;;;18.70;99.90;;;;;;4925698;29;20920;-81
2022/08/14 06:31:20;;;;;;;6.40;3.30;;;18.70;99.90;;;;;;4925572;29;20449;-81
2022/08/14 06:33:49;;;;;;;5.60;3.17;;;18.90;99.90;;;;;;4924819;29;20497;-80
2022/08/14 06:36:37;;;;;;;25.73;18.02;;;19.00;99.90;;;;;;4920970;29;20404;-80
2022/08/14 06:39:07;;;;;;;5.88;3.30;;;19.10;99.90;;;;;;4949868;28;20394;-81
2022/08/14 06:41:38;;;;;;;8.75;4.45;;;19.10;99.90;;;;;;4939734;29;20821;-82
2022/08/14 06:44:26;;;;;;;8.33;3.70;;;19.20;99.90;;;;;;4924098;29;20398;-81
2022/08/14 06:47:03;;;;;;;9.03;3.40;;;19.20;99.90;;;;;;4938362;28;20753;-81
2022/08/14 06:49:32;;;;;;;6.20;3.88;;;19.30;99.90;;;;;;4924628;29;20840;-81
2022/08/14 06:52:13;;;;;;;9.07;3.58;;;19.30;99.90;;;;;;4926229;29;20415;-82
2022/08/14 06:54:43;;;;;;;5.00;2.88;;;19.40;99.90;;;;;;4924226;29;20514;-82
2022/08/14 06:57:12;;;;;;;5.20;3.37;;;19.40;99.90;;;;;;4932658;29;20478;-81
2022/08/14 06:59:40;;;;;;;6.00;3.58;;;19.40;99.90;;;;;;4932650;29;20465;-82
2022/08/14 07:07:49;;;;;;;7.43;3.33;;;19.70;99.90;;;;;;4927717;29;20423;-83
2022/08/14 07:10:17;;;;;;;8.27;4.18;;;19.60;99.90;;;;;;4923552;29;20403;-85
2022/08/14 07:12:46;;;;;;;9.20;4.97;;;19.70;99.90;;;;;;4923019;29;20408;-86
2022/08/14 07:15:32;;;;;;;5.75;3.47;;;19.70;99.90;;;;;;4921820;29;20404;-84
2022/08/14 07:18:11;;;;;;;7.35;3.42;;;19.70;99.90;;;;;;4927930;29;20434;-86
2022/08/14 07:20:43;;;;;;;6.50;3.40;;;19.80;99.90;;;;;;4938482;28;20503;-86
2022/08/14 07:23:11;;;;;;;5.05;3.08;;;19.90;99.90;;;;;;4925355;29;20423;-85
2022/08/14 07:25:51;;;;;;;11.87;6.10;;;19.90;99.90;;;;;;4944047;28;20614;-88
2022/08/14 07:28:33;;;;;;;8.88;6.22;;;20.00;99.90;;;;;;4937426;29;20409;-87
2022/08/14 07:31:10;;;;;;;5.72;3.33;;;20.10;99.90;;;;;;4943509;28;20761;-88
2022/08/14 07:33:40;;;;;;;6.15;2.80;;;20.10;99.90;;;;;;4920188;29;20878;-86
2022/08/14 07:36:14;;;;;;;5.70;3.08;;;20.20;99.90;;;;;;4928975;29;20396;-86
2022/08/14 07:39:00;;;;;;;6.53;3.17;;;20.30;99.90;;;;;;4919591;29;20498;-83
2022/08/14 07:41:39;;;;;;;6.43;2.90;;;20.40;99.90;;;;;;4927252;29;20399;-86
2022/08/14 07:44:10;;;;;;;7.72;3.13;;;20.40;99.90;;;;;;4940296;29;20918;-88
2022/08/14 07:46:58;;;;;;;6.28;3.10;;;20.40;99.90;;;;;;4930810;29;20789;-88
2022/08/14 07:49:26;;;;;;;6.93;3.53;;;20.50;99.90;;;;;;4921333;29;20459;-87
2022/08/14 07:51:55;;;;;;;7.18;3.00;;;20.50;99.90;;;;;;4929098;29;20888;-88
2022/08/14 07:54:25;;;;;;;3.90;2.92;;;20.60;99.90;;;;;;4928636;29;20466;-83
2022/08/14 07:56:59;;;;;;;5.68;3.33;;;20.60;99.90;;;;;;4932473;29;20406;-87
2022/08/14 07:59:40;;;;;;;7.55;3.78;;;20.70;99.90;;;;;;4924168;29;20503;-87
2022/08/14 08:02:25;;;;;;;5.57;2.93;;;20.80;99.90;;;;;;4923025;29;20884;-87
2022/08/14 08:04:54;;;;;;;4.35;2.80;;;20.90;99.90;;;;;;4916041;29;20836;-88
2022/08/14 08:07:29;;;;;;;8.90;3.17;;;20.90;99.90;;;;;;4926356;29;20417;-86
2022/08/14 08:10:01;;;;;;;6.55;2.85;;;20.90;99.90;;;;;;4934270;29;20405;-85
2022/08/14 08:12:30;;;;;;;7.57;3.22;;;21.00;99.90;;;;;;4925644;29;20414;-86
2022/08/14 08:15:01;;;;;;;4.13;3.00;;;21.00;99.90;;;;;;4927793;29;20900;-84
2022/08/14 08:17:36;;;;;;;6.78;3.00;;;21.10;99.90;;;;;;4930022;29;20437;-88
2022/08/14 08:20:23;;;;;;;5.27;2.80;;;21.10;99.90;;;;;;4926869;29;20429;-82
2022/08/14 08:22:57;;;;;;;8.65;3.22;;;21.20;99.90;;;;;;4922713;29;20814;-88
2022/08/14 08:25:50;;;;;;;5.38;2.80;;;21.30;99.90;;;;;;4925665;29;20469;-86
2022/08/14 08:28:26;;;;;;;6.00;2.88;;;21.30;99.90;;;;;;4939675;28;20423;-88
2022/08/14 08:31:00;;;;;;;7.18;3.17;;;21.40;99.90;;;;;;4926129;29;20419;-87
2022/08/14 08:33:31;;;;;;;6.53;3.22;;;21.40;99.90;;;;;;4927336;29;20467;-88
2022/08/14 08:36:07;;;;;;;7.53;3.00;;;21.50;99.90;;;;;;4930899;29;20417;-89
2022/08/14 08:38:49;;;;;;;5.40;3.20;;;21.60;99.90;;;;;;4944483;29;20764;-86
2022/08/14 08:41:46;;;;;;;4.67;3.10;;;21.70;99.90;;;;;;4927470;29;20410;-86
2022/08/14 08:44:17;;;;;;;5.65;2.88;;;21.80;99.90;;;;;;4935902;28;20415;-86
2022/08/14 08:47:04;;;;;;;5.40;3.20;;;21.80;99.90;;;;;;4923588;29;21433;-86
2022/08/14 08:49:41;;;;;;;6.65;2.95;;;21.80;99.90;;;;;;4929774;29;20422;-86
2022/08/14 08:52:27;;;;;;;5.17;3.30;;;21.90;99.90;;;;;;4927366;29;20768;-87
2022/08/14 08:55:13;;;;;;;6.35;3.17;;;21.90;99.90;;;;;;4931145;29;20488;-86
2022/08/14 08:57:41;;;;;;;4.05;2.92;;;22.00;99.90;;;;;;4921325;29;20409;-86
2022/08/14 09:00:14;;;;;;;5.53;2.72;;;22.10;99.90;;;;;;4944135;28;20815;-86
2022/08/14 09:02:56;;;;;;;9.13;4.47;;;22.20;99.90;;;;;;4931007;28;20409;-86
2022/08/14 09:05:24;;;;;;;6.80;4.13;;;22.20;99.90;;;;;;4928018;29;20423;-86
2022/08/14 09:07:52;;;;;;;4.75;3.28;;;22.20;99.90;;;;;;4932211;29;20988;-87
2022/08/14 09:10:23;;;;;;;8.13;3.05;;;22.30;99.90;;;;;;4920635;29;20403;-86
2022/08/14 09:12:54;;;;;;;5.47;3.22;;;22.40;99.90;;;;;;4938203;28;20414;-85
2022/08/14 09:15:22;;;;;;;4.73;3.00;;;22.50;99.90;;;;;;4940372;28;20412;-84
2022/08/14 09:17:51;;;;;;;5.20;3.30;;;22.50;99.90;;;;;;4943721;28;20417;-86
2022/08/14 09:20:22;;;;;;;4.97;3.25;;;22.60;99.90;;;;;;4914974;29;20419;-86
2022/08/14 09:23:00;;;;;;;4.53;2.92;;;22.70;99.90;;;;;;4931212;29;20412;-86
2022/08/14 09:25:27;;;;;;;7.28;3.40;;;22.70;99.90;;;;;;4924970;29;20739;-85
2022/08/14 09:28:21;;;;;;;7.45;3.00;;;22.60;99.90;;;;;;4937217;29;20446;-86
2022/08/14 09:30:55;;;;;;;5.50;3.33;;;22.70;99.90;;;;;;4924291;29;20389;-85
2022/08/14 09:33:49;;;;;;;4.43;3.13;;;22.80;99.90;;;;;;4940500;29;20479;-86
2022/08/14 09:36:52;;;;;;;6.60;3.10;;;22.80;99.90;;;;;;4925806;29;20398;-86
2022/08/14 09:39:34;;;;;;;5.03;2.92;;;22.90;99.90;;;;;;4931684;29;20410;-86
2022/08/14 09:42:48;;;;;;;5.72;3.30;;;23.00;99.90;;;;;;4938250;29;20755;-85
2022/08/14 09:45:31;;;;;;;6.30;3.05;;;23.00;99.90;;;;;;4924777;29;20449;-85
2022/08/14 09:48:24;;;;;;;5.90;3.10;;;23.20;99.90;;;;;;4931536;28;20772;-87
2022/08/14 09:50:58;;;;;;;5.57;2.90;;;23.20;99.90;;;;;;4919030;29;20463;-86
2022/08/14 09:53:37;;;;;;;4.68;3.00;;;23.20;99.90;;;;;;4923715;29;20404;-88
2022/08/14 09:56:25;;;;;;;4.93;3.00;;;23.20;99.90;;;;;;4930992;29;20410;-88
2022/08/14 09:59:13;;;;;;;5.55;3.10;;;23.20;99.90;;;;;;4928198;29;20918;-87
2022/08/14 10:01:50;;;;;;;4.38;3.17;;;23.30;99.90;;;;;;4929981;29;20426;-88
2022/08/14 10:04:23;;;;;;;5.63;3.60;;;23.20;99.90;;;;;;4929587;29;20427;-89
2022/08/14 10:07:03;;;;;;;11.07;8.00;;;23.30;99.90;;;;;;4934179;29;20465;-89
2022/08/14 10:09:32;;;;;;;8.02;4.68;;;23.30;99.90;;;;;;4930207;29;20420;-88
2022/08/14 10:12:04;;;;;;;7.77;3.63;;;23.30;99.90;;;;;;4929271;29;20422;-89
2022/08/14 10:14:33;;;;;;;6.63;3.38;;;23.40;99.90;;;;;;4920629;29;20492;-88
2022/08/14 10:17:05;;;;;;;6.70;3.03;;;23.60;99.90;;;;;;4923599;29;20479;-88
2022/08/14 10:19:45;;;;;;;4.88;2.90;;;23.50;99.90;;;;;;4923342;29;20404;-90
2022/08/14 10:22:14;;;;;;;4.05;3.20;;;23.60;99.90;;;;;;4926211;29;20441;-89
2022/08/14 10:25:14;;;;;;;5.80;3.30;;;23.60;99.90;;;;;;4941898;28;20432;-87
2022/08/14 10:27:48;;;;;;;4.57;2.93;;;23.80;99.90;;;;;;4944175;28;20413;-87
2022/08/14 10:30:33;;;;;;;5.40;3.13;;;23.80;99.90;;;;;;4944398;28;20445;-86
2022/08/14 10:33:01;;;;;;;4.00;2.92;;;23.80;99.90;;;;;;4921871;29;20477;-90
2022/08/14 10:35:39;;;;;;;5.03;3.07;;;23.90;99.90;;;;;;4935548;29;20433;-87
2022/08/14 10:38:34;;;;;;;4.75;3.20;;;23.90;99.90;;;;;;4934008;29;20390;-88
2022/08/14 10:41:12;;;;;;;6.32;4.38;;;24.00;99.90;;;;;;4930005;29;20419;-86
2022/08/14 10:44:11;;;;;;;7.97;3.30;;;24.00;99.90;;;;;;4932142;29;20411;-86
2022/08/14 10:47:06;;;;;;;6.57;3.47;;;24.10;99.90;;;;;;4922745;29;20429;-86
2022/08/14 10:49:58;;;;;;;5.10;3.13;;;24.20;99.90;;;;;;4941155;28;20417;-87
2022/08/14 10:52:30;;;;;;;6.60;3.25;;;24.20;99.90;;;;;;4921562;29;20419;-87
2022/08/14 10:55:18;;;;;;;8.43;3.50;;;24.40;99.90;;;;;;4943848;29;20476;-87
2022/08/14 10:57:49;;;;;;;6.13;3.13;;;24.30;99.90;;;;;;4930450;29;20407;-86
2022/08/14 11:00:22;;;;;;;5.32;3.00;;;24.40;99.90;;;;;;4943173;29;20479;-87
2022/08/14 11:03:12;;;;;;;5.57;2.92;;;24.60;99.90;;;;;;4944046;29;20496;-87
2022/08/14 11:05:53;;;;;;;5.50;3.10;;;24.60;99.90;;;;;;4915584;29;20423;-88
2022/08/14 11:08:32;;;;;;;4.45;3.08;;;24.60;99.90;;;;;;4905977;29;20524;-86
2022/08/14 11:11:04;;;;;;;5.20;3.05;;;24.70;99.90;;;;;;4944216;28;20485;-87
2022/08/14 11:13:32;;;;;;;3.88;3.00;;;24.70;99.90;;;;;;4938514;28;20909;-87
2022/08/14 11:16:01;;;;;;;6.28;3.13;;;24.80;99.90;;;;;;4937079;28;20450;-86
2022/08/14 11:18:31;;;;;;;5.15;3.20;;;24.90;99.90;;;;;;4951381;28;20429;-86
2022/08/14 11:21:07;;;;;;;4.68;3.20;;;24.90;99.90;;;;;;4942012;28;20906;-86
2022/08/14 11:23:38;;;;;;;9.77;3.80;;;25.00;99.90;;;;;;4941220;28;21158;-87
2022/08/14 11:26:12;;;;;;;5.05;3.08;;;25.00;99.90;;;;;;4925512;29;20395;-86
2022/08/14 11:28:44;;;;;;;8.98;3.65;;;25.00;99.90;;;;;;4921735;29;20415;-86
2022/08/14 11:31:22;;;;;;;6.00;3.10;;;25.10;99.90;;;;;;4931659;29;20471;-86
2022/08/14 11:33:55;;;;;;;5.93;3.35;;;24.90;99.90;;;;;;4934041;29;20438;-87
2022/08/14 11:36:27;;;;;;;26.88;5.72;;;25.00;99.90;;;;;;4928892;29;20477;-87
2022/08/14 11:39:19;;;;;;;13.57;8.25;;;25.10;99.90;;;;;;4935294;29;20525;-86
2022/08/14 11:42:06;;;;;;;7.97;4.00;;;25.30;99.90;;;;;;4919244;29;20418;-86
2022/08/14 11:45:03;;;;;;;6.35;3.40;;;25.30;99.90;;;;;;4943736;28;20470;-88
2022/08/14 11:47:38;;;;;;;9.80;3.53;;;25.40;99.90;;;;;;4925284;29;20408;-88
2022/08/14 11:50:32;;;;;;;7.65;3.17;;;25.30;99.90;;;;;;4933374;29;20416;-88
2022/08/14 11:53:06;;;;;;;9.07;3.80;;;25.30;99.90;;;;;;4917439;29;20766;-88
2022/08/14 11:55:37;;;;;;;8.07;3.40;;;25.40;99.90;;;;;;4924371;29;20850;-87
2022/08/14 11:58:11;;;;;;;10.00;6.43;;;25.50;99.90;;;;;;4922433;29;20429;-88
2022/08/14 12:00:53;;;;;;;7.13;3.83;;;25.60;99.90;;;;;;4941903;28;20418;-87
2022/08/14 12:03:21;;;;;;;6.55;4.18;;;25.70;99.90;;;;;;4940225;28;20414;-88
2022/08/14 12:06:11;;;;;;;4.18;3.20;;;25.70;99.90;;;;;;4941211;28;20413;-88
2022/08/14 12:08:59;;;;;;;4.53;3.50;;;25.70;99.90;;;;;;4942747;28;20415;-87
2022/08/14 12:11:39;;;;;;;5.43;3.40;;;25.80;99.90;;;;;;4926524;29;20919;-88
2022/08/14 12:14:14;;;;;;;6.65;3.38;;;25.90;99.90;;;;;;4941808;29;20424;-87
2022/08/14 12:17:06;;;;;;;5.32;3.40;;;26.00;99.90;;;;;;4931884;29;20413;-88
2022/08/14 12:19:48;;;;;;;6.47;3.67;;;26.10;99.90;;;;;;4948726;29;20457;-89
2022/08/14 12:22:34;;;;;;;6.97;3.47;;;26.10;99.90;;;;;;4935016;29;20424;-89
2022/08/14 12:25:11;;;;;;;5.55;3.60;;;26.10;99.90;;;;;;4933006;29;20441;-87
2022/08/14 12:27:48;;;;;;;4.28;3.33;;;26.20;99.90;;;;;;4929144;29;20417;-88
2022/08/14 12:30:36;;;;;;;6.27;3.33;;;26.20;99.90;;;;;;4941813;28;20477;-87
2022/08/14 12:33:31;;;;;;;6.85;3.70;;;26.20;99.90;;;;;;4944761;28;20456;-88
2022/08/14 12:36:06;;;;;;;6.57;3.70;;;26.20;99.90;;;;;;4926971;29;20402;-87
2022/08/14 12:38:40;;;;;;;7.18;3.50;;;26.10;99.90;;;;;;4932974;29;20493;-88
2022/08/14 12:41:21;;;;;;;8.23;3.70;;;26.30;99.90;;;;;;4932219;29;20997;-88
2022/08/14 12:44:07;;;;;;;5.80;3.20;;;26.20;99.90;;;;;;4933468;29;20417;-87
2022/08/14 12:46:41;;;;;;;4.90;3.42;;;26.30;99.90;;;;;;4930910;29;20464;-88
2022/08/14 12:49:17;;;;;;;8.23;3.47;;;26.50;99.90;;;;;;4945075;28;20410;-88
2022/08/14 12:51:56;;;;;;;5.40;3.25;;;26.70;99.90;;;;;;4931338;29;20466;-87
2022/08/14 12:54:24;;;;;;;6.50;3.40;;;26.90;99.90;;;;;;4930014;29;20506;-89
2022/08/14 12:57:14;;;;;;;6.70;3.42;;;26.80;99.90;;;;;;4931250;29;20786;-87
2022/08/14 12:59:47;;;;;;;6.03;3.53;;;26.90;99.90;;;;;;4924613;29;20441;-89
2022/08/14 13:02:25;;;;;;;6.67;3.50;;;26.90;99.90;;;;;;4930231;29;20414;-88
2022/08/14 13:04:54;;;;;;;6.35;3.50;;;26.80;99.90;;;;;;4931523;29;20436;-89
2022/08/14 13:07:26;;;;;;;5.55;3.28;;;26.70;99.90;;;;;;4932364;29;20438;-87
2022/08/14 13:10:00;;;;;;;5.47;2.97;;;27.00;99.90;;;;;;4927639;29;20414;-88
2022/08/14 13:12:52;;;;;;;4.82;2.90;;;27.10;99.90;;;;;;4933437;29;20416;-88
2022/08/14 13:15:44;;;;;;;6.32;3.22;;;27.10;99.90;;;;;;4929053;29;20502;-88
2022/08/14 13:18:14;;;;;;;10.83;3.53;;;27.00;99.90;;;;;;4931316;29;20488;-88
2022/08/14 13:20:44;;;;;;;5.63;3.00;;;27.10;99.90;;;;;;4929910;29;20426;-88
2022/08/14 13:23:24;;;;;;;7.10;3.55;;;27.10;99.90;;;;;;4943720;29;20465;-89
2022/08/14 13:25:59;;;;;;;6.07;3.42;;;27.20;99.90;;;;;;4959532;28;20427;-89
2022/08/14 13:28:28;;;;;;;11.68;3.60;;;27.30;99.90;;;;;;4943910;28;20963;-88
2022/08/14 13:31:04;;;;;;;6.22;3.50;;;27.40;99.90;;;;;;4934337;29;20448;-90
2022/08/14 13:33:38;;;;;;;8.88;3.35;;;27.40;99.90;;;;;;4928581;29;20417;-89
2022/08/14 13:36:09;;;;;;;5.22;3.05;;;27.40;99.90;;;;;;4933348;29;20484;-88
2022/08/14 13:38:52;;;;;;;4.15;3.17;;;27.40;99.90;;;;;;4930621;29;20770;-86
2022/08/14 13:41:22;;;;;;;5.35;3.25;;;27.50;99.90;;;;;;4938824;28;20485;-88
2022/08/14 13:44:02;;;;;;;4.68;3.55;;;27.50;99.90;;;;;;4921734;29;20476;-88
2022/08/14 13:46:30;;;;;;;4.50;3.42;;;27.60;99.90;;;;;;4936001;28;20503;-88
2022/08/14 13:48:58;;;;;;;5.25;3.40;;;27.70;99.90;;;;;;4933069;29;20414;-88
2022/08/14 13:51:34;;;;;;;6.22;3.50;;;27.40;99.90;;;;;;4939662;28;20415;-89
2022/08/14 13:54:04;;;;;;;6.78;3.80;;;27.50;99.90;;;;;;4932903;29;20828;-88
2022/08/14 13:56:41;;;;;;;26.80;21.98;;;27.20;99.90;;;;;;4942740;28;20407;-87